createdAt,value
2023-08-29T00:01:13.799Z,21.69
2023-08-29T00:03:05.493Z,21.61
2023-08-29T00:04:56.943Z,21.49
2023-08-29T00:06:48.335Z,21.50
2023-08-29T00:08:40.175Z,21.51
2023-08-29T00:10:31.523Z,21.44
2023-08-29T00:12:23.462Z,21.46
2023-08-29T00:14:14.985Z,21.51
2023-08-29T00:16:06.658Z,21.57
2023-08-29T00:17:58.151Z,21.54
2023-08-29T00:19:49.893Z,21.46
2023-08-29T00:21:41.456Z,21.47
2023-08-29T00:23:32.868Z,21.43
2023-08-29T00:25:24.070Z,21.45
2023-08-29T00:27:16.189Z,21.44
2023-08-29T00:29:07.912Z,21.41
2023-08-29T00:30:59.137Z,21.36
2023-08-29T00:32:50.252Z,21.41
2023-08-29T00:34:41.895Z,21.38
2023-08-29T00:36:33.543Z,21.37
2023-08-29T00:38:25.073Z,21.33
2023-08-29T00:40:17.495Z,21.35
2023-08-29T00:42:08.863Z,21.25
2023-08-29T00:44:00.534Z,21.23
2023-08-29T00:45:52.286Z,21.19
2023-08-29T00:47:44.037Z,21.24
2023-08-29T00:49:36.430Z,21.22
2023-08-29T00:51:27.970Z,21.24
2023-08-29T00:53:19.212Z,21.27
2023-08-29T00:55:10.801Z,21.33
2023-08-29T00:57:02.264Z,21.34
2023-08-29T00:58:54.193Z,21.30
2023-08-29T01:00:46.238Z,21.29
2023-08-29T01:02:37.527Z,21.31
2023-08-29T01:04:29.048Z,21.28
2023-08-29T01:06:20.599Z,21.34
2023-08-29T01:08:12.026Z,21.39
2023-08-29T01:10:03.175Z,21.28
2023-08-29T01:12:06.847Z,21.26
2023-08-29T01:14:20.973Z,21.10
2023-08-29T01:16:14.257Z,21.01
2023-08-29T01:18:07.080Z,21.04
2023-08-29T01:19:59.529Z,21.03
2023-08-29T01:22:28.540Z,21.00
2023-08-29T01:24:26.695Z,21.10
2023-08-29T01:26:18.066Z,21.11
2023-08-29T01:28:09.911Z,21.09
2023-08-29T01:30:01.662Z,21.12
2023-08-29T01:31:52.950Z,21.04
2023-08-29T01:33:44.149Z,21.04
2023-08-29T01:35:35.590Z,20.90
2023-08-29T01:37:27.158Z,20.77
2023-08-29T01:39:18.590Z,20.76
2023-08-29T01:41:09.632Z,20.68
2023-08-29T01:43:00.743Z,20.64
2023-08-29T01:44:52.232Z,20.61
2023-08-29T01:46:43.803Z,20.63
2023-08-29T01:48:35.056Z,20.66
2023-08-29T01:50:27.358Z,20.58
2023-08-29T01:52:19.013Z,20.54
2023-08-29T01:54:10.681Z,20.45
2023-08-29T01:56:02.622Z,20.36
2023-08-29T01:57:55.572Z,20.35
2023-08-29T01:59:47.572Z,20.27
2023-08-29T02:01:39.108Z,20.26
2023-08-29T02:03:30.539Z,20.29
2023-08-29T02:05:21.857Z,20.26
2023-08-29T02:07:13.047Z,20.23
2023-08-29T02:09:05.056Z,20.16
2023-08-29T02:10:56.608Z,20.12
2023-08-29T02:12:47.818Z,20.20
2023-08-29T02:14:39.316Z,20.15
2023-08-29T02:16:32.895Z,20.14
2023-08-29T02:18:24.483Z,20.05
2023-08-29T02:20:15.893Z,20.09
2023-08-29T02:22:07.020Z,20.09
2023-08-29T02:24:02.227Z,20.13
2023-08-29T02:26:04.011Z,20.11
2023-08-29T02:27:55.432Z,20.09
2023-08-29T02:29:47.061Z,20.09
2023-08-29T02:31:38.759Z,20.00
2023-08-29T02:33:30.754Z,19.93
2023-08-29T02:35:22.151Z,19.93
2023-08-29T02:37:13.734Z,19.93
2023-08-29T02:39:04.984Z,19.96
2023-08-29T02:40:56.588Z,20.01
2023-08-29T02:42:47.675Z,20.02
2023-08-29T02:44:39.446Z,19.94
2023-08-29T02:46:30.887Z,19.96
2023-08-29T02:48:22.443Z,19.84
2023-08-29T02:50:13.558Z,19.99
2023-08-29T02:52:04.970Z,20.01
2023-08-29T02:53:56.528Z,19.94
2023-08-29T02:55:50.407Z,20.07
2023-08-29T02:57:41.825Z,20.06
2023-08-29T02:59:32.912Z,20.08
2023-08-29T03:01:24.389Z,20.11
2023-08-29T03:03:17.298Z,20.20
2023-08-29T03:05:09.446Z,20.29
2023-08-29T03:07:00.952Z,20.40
2023-08-29T03:08:52.286Z,20.48
2023-08-29T03:10:43.988Z,20.50
2023-08-29T03:12:36.076Z,20.61
2023-08-29T03:14:28.676Z,20.72
2023-08-29T03:16:20.689Z,20.65
2023-08-29T03:18:12.664Z,20.72
2023-08-29T03:20:06.474Z,20.86
2023-08-29T03:21:57.702Z,20.91
2023-08-29T03:23:48.923Z,20.84
2023-08-29T03:25:40.656Z,20.77
2023-08-29T03:27:32.231Z,20.84
2023-08-29T03:29:23.622Z,20.92
2023-08-29T03:31:16.515Z,20.97
2023-08-29T03:33:08.033Z,21.01
2023-08-29T03:34:59.845Z,20.98
2023-08-29T03:36:51.329Z,21.03
2023-08-29T03:38:43.517Z,21.10
2023-08-29T03:40:35.038Z,21.03
2023-08-29T03:42:26.831Z,21.02
2023-08-29T03:44:18.062Z,20.99
2023-08-29T03:46:09.749Z,21.04
2023-08-29T03:48:02.514Z,21.01
2023-08-29T03:49:55.467Z,21.04
2023-08-29T03:51:46.533Z,21.13
2023-08-29T03:53:38.441Z,21.16
2023-08-29T03:55:29.804Z,21.15
2023-08-29T03:57:24.149Z,20.96
2023-08-29T03:59:15.537Z,21.03
2023-08-29T04:01:07.071Z,21.05
2023-08-29T04:02:58.634Z,21.07
2023-08-29T04:04:52.481Z,21.13
2023-08-29T04:06:44.294Z,21.10
2023-08-29T04:08:35.647Z,21.15
2023-08-29T04:10:26.781Z,21.22
2023-08-29T04:12:18.501Z,21.25
2023-08-29T04:14:09.844Z,21.25
2023-08-29T04:16:05.561Z,21.34
2023-08-29T04:17:56.921Z,21.32
2023-08-29T04:19:49.136Z,21.35
2023-08-29T04:21:40.529Z,21.30
2023-08-29T04:23:32.229Z,21.36
2023-08-29T04:25:25.853Z,21.41
2023-08-29T04:27:17.490Z,21.44
2023-08-29T04:29:08.951Z,21.46
2023-08-29T04:31:13.126Z,21.28
2023-08-29T04:33:05.069Z,21.37
2023-08-29T04:34:56.668Z,21.44
2023-08-29T04:36:48.053Z,21.57
2023-08-29T04:38:39.850Z,21.58
2023-08-29T04:40:31.508Z,21.61
2023-08-29T04:42:22.966Z,21.67
2023-08-29T04:44:14.135Z,21.68
2023-08-29T04:46:08.564Z,21.64
2023-08-29T04:48:00.105Z,21.59
2023-08-29T04:49:51.687Z,21.45
2023-08-29T04:51:42.863Z,21.33
2023-08-29T04:53:34.591Z,21.27
2023-08-29T04:55:26.394Z,21.16
2023-08-29T04:57:17.798Z,21.17
2023-08-29T04:59:09.218Z,21.04
2023-08-29T05:01:02.085Z,21.07
2023-08-29T05:02:53.736Z,20.98
2023-08-29T05:04:46.817Z,20.87
2023-08-29T05:06:39.175Z,20.84
2023-08-29T05:08:35.772Z,20.89
2023-08-29T05:10:27.264Z,20.82
2023-08-29T05:12:18.982Z,20.91
2023-08-29T05:14:10.335Z,20.98
2023-08-29T05:16:01.324Z,20.91
2023-08-29T05:17:52.941Z,20.87
2023-08-29T05:19:44.731Z,20.93
2023-08-29T05:21:36.003Z,20.96
2023-08-29T05:23:27.314Z,21.03
2023-08-29T05:25:18.903Z,21.04
2023-08-29T05:27:10.240Z,21.14
2023-08-29T05:29:01.772Z,21.17
2023-08-29T05:30:53.245Z,21.29
2023-08-29T05:32:44.613Z,21.15
2023-08-29T05:34:35.919Z,21.15
2023-08-29T05:36:27.072Z,21.23
2023-08-29T05:38:18.473Z,21.18
2023-08-29T05:40:10.128Z,21.06
2023-08-29T05:42:01.698Z,21.07
2023-08-29T05:43:52.936Z,21.15
2023-08-29T05:45:44.160Z,21.11
2023-08-29T05:47:35.830Z,21.10
2023-08-29T05:49:27.186Z,21.03
2023-08-29T05:51:18.719Z,21.14
2023-08-29T05:53:10.191Z,21.23
2023-08-29T05:55:01.914Z,21.28
2023-08-29T05:56:53.342Z,21.29
2023-08-29T05:58:44.947Z,21.20
2023-08-29T06:00:37.195Z,21.18
2023-08-29T06:02:28.951Z,21.26
2023-08-29T06:04:20.367Z,21.26
2023-08-29T06:06:11.858Z,21.29
2023-08-29T06:08:17.043Z,21.37
2023-08-29T06:10:10.263Z,21.34
2023-08-29T06:12:01.733Z,21.46
2023-08-29T06:13:54.501Z,21.38
2023-08-29T06:15:45.832Z,21.33
2023-08-29T06:17:37.320Z,21.44
2023-08-29T06:19:29.098Z,21.47
2023-08-29T06:21:21.175Z,21.48
2023-08-29T06:23:12.698Z,21.53
2023-08-29T06:25:05.390Z,21.65
2023-08-29T06:26:56.939Z,21.63
2023-08-29T06:28:49.514Z,21.65
2023-08-29T06:30:42.116Z,21.61
2023-08-29T06:32:35.457Z,21.71
2023-08-29T06:34:27.102Z,21.82
2023-08-29T06:36:18.704Z,21.79
2023-08-29T06:38:10.626Z,21.79
2023-08-29T06:40:02.241Z,21.88
2023-08-29T06:41:53.578Z,21.89
2023-08-29T06:43:47.231Z,21.79
2023-08-29T06:45:39.133Z,21.83
2023-08-29T06:47:30.899Z,21.81
2023-08-29T06:49:22.361Z,21.85
2023-08-29T06:51:13.567Z,21.88
2023-08-29T06:53:05.374Z,21.95
2023-08-29T06:54:58.080Z,21.94
2023-08-29T06:56:50.541Z,21.93
2023-08-29T06:58:42.027Z,21.96
2023-08-29T07:00:33.931Z,22.09
2023-08-29T07:02:27.053Z,22.13
2023-08-29T07:04:18.464Z,22.21
2023-08-29T07:06:09.696Z,22.30
2023-08-29T07:08:01.259Z,22.38
2023-08-29T07:09:52.432Z,22.45
2023-08-29T07:11:43.947Z,22.50
2023-08-29T07:13:35.255Z,22.51
2023-08-29T07:15:26.771Z,22.55
2023-08-29T07:17:18.683Z,22.63
2023-08-29T07:19:11.673Z,22.56
2023-08-29T07:21:03.087Z,22.67
2023-08-29T07:22:54.603Z,22.69
2023-08-29T07:24:45.936Z,22.64
2023-08-29T07:26:37.628Z,22.67
2023-08-29T07:28:29.298Z,22.72
2023-08-29T07:30:21.108Z,22.86
2023-08-29T07:32:13.095Z,22.84
2023-08-29T07:34:04.403Z,22.82
2023-08-29T07:35:55.840Z,22.86
2023-08-29T07:37:47.183Z,22.89
2023-08-29T07:39:38.682Z,22.92
2023-08-29T07:41:29.864Z,22.92
2023-08-29T07:43:21.312Z,23.05
2023-08-29T07:45:12.668Z,22.97
2023-08-29T07:47:15.002Z,22.96
2023-08-29T07:49:15.347Z,22.94
2023-08-29T07:51:06.552Z,22.98
2023-08-29T07:52:58.169Z,22.97
2023-08-29T07:54:49.844Z,23.02
2023-08-29T07:56:41.475Z,23.09
2023-08-29T07:58:32.781Z,23.10
2023-08-29T08:00:24.464Z,23.20
2023-08-29T08:02:15.606Z,23.31
2023-08-29T08:04:07.184Z,23.40
2023-08-29T08:05:58.779Z,23.55
2023-08-29T08:07:50.440Z,23.63
2023-08-29T08:09:43.282Z,23.63
2023-08-29T08:11:34.884Z,23.72
2023-08-29T08:13:26.425Z,23.72
2023-08-29T08:15:18.232Z,23.75
2023-08-29T08:17:09.839Z,23.74
2023-08-29T08:19:01.502Z,23.79
2023-08-29T08:20:53.320Z,23.78
2023-08-29T08:22:44.606Z,23.79
2023-08-29T08:24:35.981Z,23.79
2023-08-29T08:26:28.324Z,23.87
2023-08-29T08:28:19.971Z,23.87
2023-08-29T08:30:12.205Z,23.84
2023-08-29T08:32:04.838Z,23.89
2023-08-29T08:33:57.385Z,23.87
2023-08-29T08:35:57.166Z,23.92
2023-08-29T08:37:49.329Z,24.04
2023-08-29T08:39:40.712Z,24.09
2023-08-29T08:41:32.861Z,24.13
2023-08-29T08:43:25.093Z,24.09
2023-08-29T08:45:16.462Z,24.14
2023-08-29T08:47:08.153Z,24.07
2023-08-29T08:48:59.640Z,24.12
2023-08-29T08:50:51.392Z,24.01
2023-08-29T08:52:43.205Z,24.08
2023-08-29T08:54:34.730Z,24.07
2023-08-29T08:56:26.336Z,24.08
2023-08-29T08:58:19.212Z,24.03
2023-08-29T09:00:11.631Z,24.15
2023-08-29T09:02:03.473Z,24.13
2023-08-29T09:03:55.579Z,24.08
2023-08-29T09:05:46.751Z,24.11
2023-08-29T09:07:39.729Z,24.15
2023-08-29T09:09:31.136Z,24.32
2023-08-29T09:11:22.744Z,24.27
2023-08-29T09:13:17.688Z,24.29
2023-08-29T09:15:09.384Z,24.38
2023-08-29T09:17:02.071Z,24.65
2023-08-29T09:18:53.362Z,24.71
2023-08-29T09:20:45.002Z,24.81
2023-08-29T09:22:37.117Z,24.85
2023-08-29T09:24:35.668Z,24.83
2023-08-29T09:26:33.642Z,24.95
2023-08-29T09:28:30.980Z,25.00
2023-08-29T09:30:22.937Z,25.01
2023-08-29T09:32:15.058Z,24.95
2023-08-29T09:34:06.921Z,24.89
2023-08-29T09:35:58.416Z,24.98
2023-08-29T09:37:54.432Z,25.09
2023-08-29T09:39:48.850Z,25.14
2023-08-29T09:41:40.702Z,25.10
2023-08-29T09:43:32.033Z,24.97
2023-08-29T09:45:24.166Z,24.87
2023-08-29T09:47:23.182Z,24.94
2023-08-29T09:49:14.660Z,24.61
2023-08-29T09:51:06.610Z,24.41
2023-08-29T09:52:58.534Z,24.31
2023-08-29T09:54:54.480Z,24.37
2023-08-29T09:56:46.030Z,24.27
2023-08-29T09:58:39.162Z,24.25
2023-08-29T10:00:30.532Z,24.23
2023-08-29T10:02:22.770Z,24.14
2023-08-29T10:04:22.283Z,24.15
2023-08-29T10:06:16.787Z,24.33
2023-08-29T10:08:18.421Z,24.55
2023-08-29T10:10:11.708Z,24.66
2023-08-29T10:12:04.611Z,24.75
2023-08-29T10:13:56.958Z,24.80
2023-08-29T10:15:49.132Z,24.94
2023-08-29T10:17:41.320Z,24.86
2023-08-29T10:19:33.664Z,24.93
2023-08-29T10:21:26.220Z,24.93
2023-08-29T10:23:19.457Z,24.96
2023-08-29T10:25:11.168Z,24.99
2023-08-29T10:27:04.053Z,24.87
2023-08-29T10:28:55.692Z,24.87
2023-08-29T10:30:49.712Z,24.88
2023-08-29T10:32:43.005Z,24.71
2023-08-29T10:34:35.884Z,24.59
2023-08-29T10:36:27.108Z,24.56
2023-08-29T10:38:19.270Z,24.41
2023-08-29T10:40:12.925Z,24.15
2023-08-29T10:42:04.652Z,24.04
2023-08-29T10:44:32.407Z,24.08
2023-08-29T10:46:24.293Z,24.14
2023-08-29T10:48:23.465Z,24.15
2023-08-29T10:50:19.857Z,24.34
2023-08-29T10:52:12.272Z,24.29
2023-08-29T10:54:07.127Z,24.24
2023-08-29T10:56:05.266Z,24.28
2023-08-29T10:58:00.009Z,24.18
2023-08-29T10:59:51.333Z,24.07
2023-08-29T11:01:42.779Z,24.04
2023-08-29T11:03:40.814Z,23.98
2023-08-29T11:05:32.447Z,23.97
2023-08-29T11:07:27.264Z,24.03
2023-08-29T11:09:22.233Z,24.04
2023-08-29T11:11:17.367Z,23.92
2023-08-29T11:13:11.065Z,23.97
2023-08-29T11:15:02.583Z,23.88
2023-08-29T11:17:13.453Z,24.09
2023-08-29T11:19:17.462Z,24.44
2023-08-29T11:21:09.772Z,24.59
2023-08-29T11:23:01.463Z,24.52
2023-08-29T11:24:56.864Z,24.54
2023-08-29T11:26:48.409Z,24.68
2023-08-29T11:28:44.040Z,24.94
2023-08-29T11:30:43.802Z,25.08
2023-08-29T11:32:36.459Z,24.97
2023-08-29T11:34:27.766Z,25.12
2023-08-29T11:36:19.002Z,25.19
2023-08-29T11:38:10.793Z,25.21
2023-08-29T11:40:10.660Z,25.17
2023-08-29T11:42:41.642Z,25.14
2023-08-29T11:44:36.439Z,25.23
2023-08-29T11:46:34.863Z,25.13
2023-08-29T11:48:27.914Z,25.12
2023-08-29T11:50:19.432Z,25.17
2023-08-29T11:52:11.027Z,25.10
2023-08-29T11:54:02.300Z,25.05
2023-08-29T11:55:53.409Z,24.96
2023-08-29T11:57:45.637Z,24.85
2023-08-29T11:59:40.264Z,24.55
2023-08-29T12:01:37.391Z,24.51
2023-08-29T12:03:29.428Z,24.64
2023-08-29T12:05:21.511Z,24.82
2023-08-29T12:07:13.476Z,24.91
2023-08-29T12:09:04.860Z,24.96
2023-08-29T12:10:56.361Z,25.04
2023-08-29T12:12:47.529Z,24.81
2023-08-29T12:14:52.335Z,24.87
2023-08-29T12:16:44.040Z,24.79
2023-08-29T12:18:35.387Z,24.80
2023-08-29T12:20:28.090Z,24.71
2023-08-29T12:22:30.012Z,24.68
2023-08-29T12:24:21.762Z,24.74
2023-08-29T12:26:13.873Z,24.69
2023-08-29T12:28:05.477Z,24.77
2023-08-29T12:29:57.108Z,24.72
2023-08-29T12:31:48.724Z,24.58
2023-08-29T12:33:40.862Z,24.53
2023-08-29T12:35:32.688Z,24.56
2023-08-29T12:37:25.115Z,24.68
2023-08-29T12:39:17.379Z,24.61
2023-08-29T12:41:08.722Z,24.63
2023-08-29T12:43:00.398Z,24.38
2023-08-29T12:44:52.104Z,24.41
2023-08-29T12:46:43.525Z,24.57
2023-08-29T12:48:35.168Z,24.57
2023-08-29T12:50:26.717Z,24.63
2023-08-29T12:52:20.366Z,24.61
2023-08-29T12:54:11.772Z,24.61
2023-08-29T12:56:03.411Z,24.64
2023-08-29T12:57:54.869Z,24.74
2023-08-29T12:59:46.479Z,24.75
2023-08-29T13:01:38.053Z,24.82
2023-08-29T13:03:29.767Z,24.82
2023-08-29T13:05:21.269Z,24.83
2023-08-29T13:07:12.465Z,24.79
2023-08-29T13:09:04.284Z,24.80
2023-08-29T13:10:56.912Z,24.85
2023-08-29T13:12:48.630Z,24.87
2023-08-29T13:14:40.576Z,24.93
2023-08-29T13:16:33.677Z,24.98
2023-08-29T13:18:25.761Z,25.03
2023-08-29T13:20:17.944Z,25.10
2023-08-29T13:22:09.365Z,25.16
2023-08-29T13:24:00.979Z,25.27
2023-08-29T13:25:52.707Z,25.23
2023-08-29T13:27:44.289Z,25.25
2023-08-29T13:29:36.276Z,25.15
2023-08-29T13:31:27.901Z,25.06
2023-08-29T13:33:19.664Z,25.07
2023-08-29T13:35:14.304Z,25.17
2023-08-29T13:37:06.857Z,25.08
2023-08-29T13:38:58.127Z,25.04
2023-08-29T13:40:52.504Z,25.02
2023-08-29T13:42:44.328Z,24.77
2023-08-29T13:44:35.896Z,24.60
2023-08-29T13:46:27.873Z,24.68
2023-08-29T13:48:19.415Z,24.70
2023-08-29T13:50:10.854Z,24.70
2023-08-29T13:52:03.032Z,24.77
2023-08-29T13:53:54.342Z,24.77
2023-08-29T13:55:46.027Z,24.59
2023-08-29T13:57:37.649Z,24.62
2023-08-29T13:59:28.940Z,24.77
2023-08-29T14:01:20.195Z,24.69
2023-08-29T14:03:21.592Z,24.69
2023-08-29T14:05:21.287Z,24.65
2023-08-29T14:07:12.947Z,24.75
2023-08-29T14:09:04.634Z,24.86
2023-08-29T14:11:00.847Z,24.91
2023-08-29T14:12:52.127Z,25.06
2023-08-29T14:14:44.363Z,25.11
2023-08-29T14:16:36.073Z,25.14
2023-08-29T14:18:28.007Z,25.02
2023-08-29T14:20:19.730Z,24.96
2023-08-29T14:22:11.015Z,24.94
2023-08-29T14:24:03.617Z,24.92
2023-08-29T14:25:55.237Z,25.00
2023-08-29T14:27:46.527Z,25.14
2023-08-29T14:29:38.179Z,25.00
2023-08-29T14:31:29.867Z,24.87
2023-08-29T14:33:21.485Z,24.89
2023-08-29T14:35:12.685Z,24.91
2023-08-29T14:37:05.065Z,24.99
2023-08-29T14:38:57.529Z,24.99
2023-08-29T14:40:50.565Z,24.90
2023-08-29T14:42:41.772Z,24.94
2023-08-29T14:44:33.968Z,24.96
2023-08-29T14:46:25.669Z,24.95
2023-08-29T14:48:16.999Z,25.01
2023-08-29T14:50:09.605Z,25.13
2023-08-29T14:52:01.120Z,25.06
2023-08-29T14:53:52.664Z,24.94
2023-08-29T14:55:44.192Z,24.93
2023-08-29T14:57:35.686Z,24.88
2023-08-29T14:59:28.013Z,24.95
2023-08-29T15:01:19.318Z,24.90
2023-08-29T15:03:10.832Z,24.97
2023-08-29T15:05:02.882Z,24.94
2023-08-29T15:06:54.632Z,24.88
2023-08-29T15:08:46.077Z,24.76
2023-08-29T15:10:37.764Z,24.66
2023-08-29T15:12:29.395Z,24.76
2023-08-29T15:14:20.704Z,24.61
2023-08-29T15:16:12.248Z,24.66
2023-08-29T15:18:04.951Z,24.63
2023-08-29T15:19:57.763Z,24.57
2023-08-29T15:21:49.268Z,24.63
2023-08-29T15:23:40.907Z,24.53
2023-08-29T15:25:32.807Z,24.48
2023-08-29T15:27:24.500Z,24.74
2023-08-29T15:29:16.996Z,24.88
2023-08-29T15:31:08.140Z,24.72
2023-08-29T15:32:59.915Z,24.77
2023-08-29T15:34:50.917Z,24.46
2023-08-29T15:36:42.224Z,24.45
2023-08-29T15:38:33.972Z,24.60
2023-08-29T15:40:25.551Z,24.69
2023-08-29T15:42:17.358Z,24.80
2023-08-29T15:44:08.499Z,24.83
2023-08-29T15:46:00.182Z,24.83
2023-08-29T15:47:54.083Z,24.95
2023-08-29T15:49:46.570Z,24.92
2023-08-29T15:51:37.953Z,24.96
2023-08-29T15:53:29.930Z,24.98
2023-08-29T15:55:22.335Z,25.02
2023-08-29T15:57:13.714Z,25.02
2023-08-29T15:59:05.058Z,25.09
2023-08-29T16:00:56.640Z,24.98
2023-08-29T16:02:48.502Z,24.93
2023-08-29T16:04:43.909Z,24.98
2023-08-29T16:06:35.157Z,24.83
2023-08-29T16:08:26.532Z,24.78
2023-08-29T16:10:17.944Z,24.80
2023-08-29T16:12:09.494Z,24.86
2023-08-29T16:14:00.728Z,24.83
2023-08-29T16:15:58.495Z,24.60
2023-08-29T16:17:50.143Z,24.65
2023-08-29T16:19:41.487Z,24.62
2023-08-29T16:21:33.413Z,24.67
2023-08-29T16:23:24.762Z,24.67
2023-08-29T16:25:16.326Z,24.67
2023-08-29T16:27:07.740Z,24.50
2023-08-29T16:28:59.204Z,24.47
2023-08-29T16:30:50.346Z,24.53
2023-08-29T16:32:41.886Z,24.49
2023-08-29T16:34:33.446Z,24.38
2023-08-29T16:36:24.635Z,24.16
2023-08-29T16:38:16.058Z,23.96
2023-08-29T16:40:08.332Z,23.96
2023-08-29T16:41:59.686Z,23.98
2023-08-29T16:43:51.070Z,24.03
2023-08-29T16:45:42.792Z,24.11
2023-08-29T16:47:34.718Z,24.17
2023-08-29T16:49:26.073Z,24.15
2023-08-29T16:51:17.223Z,24.05
2023-08-29T16:53:10.505Z,23.62
2023-08-29T16:55:02.897Z,23.53
2023-08-29T16:56:54.593Z,23.38
2023-08-29T16:58:46.420Z,23.22
2023-08-29T17:00:38.828Z,23.48
2023-08-29T17:02:30.596Z,23.64
2023-08-29T17:04:23.745Z,23.57
2023-08-29T17:06:14.873Z,23.68
2023-08-29T17:08:08.198Z,23.74
2023-08-29T17:10:00.853Z,23.78
2023-08-29T17:11:52.359Z,23.77
2023-08-29T17:13:43.926Z,23.75
2023-08-29T17:15:35.570Z,23.64
2023-08-29T17:17:27.167Z,23.48
2023-08-29T17:19:18.149Z,23.50
2023-08-29T17:21:09.693Z,23.54
2023-08-29T17:23:01.306Z,23.61
2023-08-29T17:24:52.721Z,23.50
2023-08-29T17:26:44.112Z,23.46
2023-08-29T17:28:35.784Z,23.51
2023-08-29T17:30:27.601Z,23.50
2023-08-29T17:32:19.299Z,23.52
2023-08-29T17:34:10.619Z,23.56
2023-08-29T17:36:05.821Z,23.59
2023-08-29T17:37:58.587Z,23.61
2023-08-29T17:39:51.404Z,23.58
2023-08-29T17:41:43.370Z,23.67
2023-08-29T17:43:35.365Z,23.66
2023-08-29T17:45:26.960Z,23.58
2023-08-29T17:47:18.640Z,23.49
2023-08-29T17:49:09.820Z,23.38
2023-08-29T17:51:01.519Z,23.43
2023-08-29T17:52:52.823Z,23.44
2023-08-29T17:54:44.420Z,23.40
2023-08-29T17:56:35.651Z,23.41
2023-08-29T17:58:26.807Z,23.32
2023-08-29T18:00:19.811Z,23.42
2023-08-29T18:02:11.350Z,23.31
2023-08-29T18:04:07.686Z,23.30
2023-08-29T18:06:10.317Z,23.23
2023-08-29T18:08:10.166Z,23.25
2023-08-29T18:10:18.610Z,23.17
2023-08-29T18:12:10.347Z,23.18
2023-08-29T18:14:02.620Z,23.28
2023-08-29T18:15:56.336Z,23.28
2023-08-29T18:17:47.969Z,23.25
2023-08-29T18:19:39.428Z,23.12
2023-08-29T18:21:31.063Z,23.11
2023-08-29T18:23:23.566Z,23.01
2023-08-29T18:25:14.710Z,22.94
2023-08-29T18:27:06.192Z,22.91
2023-08-29T18:28:57.400Z,22.81
2023-08-29T18:30:48.956Z,22.91
2023-08-29T18:32:40.145Z,22.87
2023-08-29T18:34:31.473Z,22.78
2023-08-29T18:36:23.512Z,22.84
2023-08-29T18:38:15.000Z,22.81
2023-08-29T18:40:07.514Z,22.83
2023-08-29T18:41:59.267Z,22.83
2023-08-29T18:43:51.143Z,22.86
2023-08-29T18:45:42.932Z,22.94
2023-08-29T18:47:34.383Z,22.94
2023-08-29T18:49:26.263Z,23.01
2023-08-29T18:51:17.755Z,23.01
2023-08-29T18:53:08.967Z,23.03
2023-08-29T18:55:00.780Z,23.14
2023-08-29T18:56:51.833Z,23.16
2023-08-29T18:58:43.514Z,23.17
2023-08-29T19:00:34.844Z,23.21
2023-08-29T19:02:26.584Z,23.24
2023-08-29T19:04:18.290Z,23.24
2023-08-29T19:06:11.812Z,23.13
2023-08-29T19:08:04.749Z,23.01
2023-08-29T19:09:56.209Z,23.07
2023-08-29T19:11:48.558Z,23.11
2023-08-29T19:13:40.150Z,23.12
2023-08-29T19:15:32.410Z,23.14
2023-08-29T19:17:23.842Z,23.16
2023-08-29T19:19:15.345Z,23.07
2023-08-29T19:21:06.732Z,23.00
2023-08-29T19:22:58.288Z,22.98
2023-08-29T19:24:49.444Z,22.98
2023-08-29T19:26:40.942Z,22.98
2023-08-29T19:28:32.629Z,22.93
2023-08-29T19:30:24.043Z,22.91
2023-08-29T19:32:15.235Z,22.75
2023-08-29T19:34:06.714Z,22.77
2023-08-29T19:35:59.514Z,22.80
2023-08-29T19:37:50.715Z,22.84
2023-08-29T19:39:42.129Z,22.97
2023-08-29T19:41:34.583Z,23.02
2023-08-29T19:43:27.408Z,22.96
2023-08-29T19:45:18.827Z,22.96
2023-08-29T19:47:10.198Z,22.95
2023-08-29T19:49:01.866Z,23.00
2023-08-29T19:50:53.433Z,22.98
2023-08-29T19:52:47.481Z,22.90
2023-08-29T19:54:39.109Z,22.95
2023-08-29T19:56:30.599Z,22.87
2023-08-29T19:58:25.087Z,22.89
2023-08-29T20:00:17.126Z,22.89
2023-08-29T20:02:08.735Z,22.85
2023-08-29T20:04:00.025Z,22.92
2023-08-29T20:05:53.620Z,22.91
2023-08-29T20:07:45.405Z,22.93
2023-08-29T20:09:36.463Z,22.83
2023-08-29T20:11:28.375Z,22.66
2023-08-29T20:13:20.050Z,22.51
2023-08-29T20:15:11.776Z,22.63
2023-08-29T20:17:05.941Z,22.56
2023-08-29T20:18:57.969Z,22.61
2023-08-29T20:20:49.227Z,22.68
2023-08-29T20:22:41.328Z,22.67
2023-08-29T20:24:33.519Z,22.63
2023-08-29T20:26:24.783Z,22.59
2023-08-29T20:28:16.375Z,22.53
2023-08-29T20:30:10.417Z,22.52
2023-08-29T20:32:01.700Z,22.61
2023-08-29T20:33:53.158Z,22.66
2023-08-29T20:35:45.452Z,22.55
2023-08-29T20:37:36.958Z,22.52
2023-08-29T20:39:29.251Z,22.59
2023-08-29T20:41:20.724Z,22.54
2023-08-29T20:43:12.452Z,22.50
2023-08-29T20:45:05.358Z,22.45
2023-08-29T20:46:57.081Z,22.41
2023-08-29T20:48:52.812Z,22.38
2023-08-29T20:50:44.080Z,22.40
2023-08-29T20:52:35.306Z,22.42
2023-08-29T20:54:26.520Z,22.33
2023-08-29T20:56:18.785Z,22.40
2023-08-29T20:58:10.249Z,22.40
2023-08-29T21:00:02.062Z,22.32
2023-08-29T21:01:53.496Z,22.30
2023-08-29T21:03:44.754Z,22.39
2023-08-29T21:05:36.632Z,22.47
2023-08-29T21:07:28.060Z,22.53
2023-08-29T21:09:20.300Z,22.60
2023-08-29T21:11:11.988Z,22.65
2023-08-29T21:13:03.868Z,22.61
2023-08-29T21:14:55.508Z,22.67
2023-08-29T21:16:47.379Z,22.73
2023-08-29T21:18:38.873Z,22.81
2023-08-29T21:20:35.413Z,22.92
2023-08-29T21:22:27.138Z,23.01
2023-08-29T21:24:18.171Z,23.00
2023-08-29T21:26:09.306Z,23.11
2023-08-29T21:28:00.542Z,22.90
2023-08-29T21:29:52.152Z,22.88
2023-08-29T21:31:43.706Z,22.81
2023-08-29T21:33:35.445Z,22.84
2023-08-29T21:35:27.097Z,22.82
2023-08-29T21:37:18.222Z,22.89
2023-08-29T21:39:13.275Z,22.91
2023-08-29T21:41:05.658Z,22.95
2023-08-29T21:42:57.423Z,22.98
2023-08-29T21:44:52.386Z,22.95
2023-08-29T21:46:44.840Z,23.02
2023-08-29T21:48:36.324Z,23.10
2023-08-29T21:50:27.549Z,23.04
2023-08-29T21:52:19.482Z,23.01
2023-08-29T21:54:10.712Z,23.03
2023-08-29T21:56:08.831Z,23.03
2023-08-29T21:58:00.855Z,22.99
2023-08-29T21:59:52.178Z,22.99
2023-08-29T22:01:44.523Z,22.81
2023-08-29T22:03:36.055Z,22.79
2023-08-29T22:06:30.010Z,22.75
2023-08-29T22:08:22.068Z,22.75
2023-08-29T22:10:13.883Z,22.81
2023-08-29T22:12:05.960Z,22.81
2023-08-29T22:13:57.823Z,22.86
2023-08-29T22:15:50.802Z,22.94
2023-08-29T22:17:44.470Z,22.94
2023-08-29T22:19:36.276Z,22.96
2023-08-29T22:21:27.806Z,22.97
2023-08-29T22:23:19.758Z,22.73
2023-08-29T22:25:11.792Z,22.72
2023-08-29T22:27:03.993Z,22.72
2023-08-29T22:28:55.540Z,22.78
2023-08-29T22:30:48.641Z,22.78
2023-08-29T22:32:40.881Z,22.64
2023-08-29T22:34:32.846Z,22.65
2023-08-29T22:36:24.747Z,22.65
2023-08-29T22:38:16.595Z,22.71
2023-08-29T22:40:09.497Z,22.73
2023-08-29T22:42:01.358Z,22.71
2023-08-29T22:43:52.759Z,22.64
2023-08-29T22:45:44.652Z,22.53
2023-08-29T22:47:36.596Z,22.69
2023-08-29T22:49:28.273Z,22.68
2023-08-29T22:51:19.736Z,22.64
2023-08-29T22:53:11.550Z,22.63
2023-08-29T22:55:03.083Z,22.66
2023-08-29T22:56:55.184Z,22.61
2023-08-29T22:58:47.044Z,22.53
2023-08-29T23:00:38.940Z,22.63
2023-08-29T23:02:30.962Z,22.75
2023-08-29T23:04:23.035Z,22.74
2023-08-29T23:06:14.631Z,22.70
2023-08-29T23:08:06.258Z,22.63
2023-08-29T23:10:00.328Z,22.67
2023-08-29T23:11:51.763Z,22.66
2023-08-29T23:13:43.900Z,22.66
2023-08-29T23:15:35.258Z,22.69
2023-08-29T23:17:26.893Z,22.70
2023-08-29T23:19:19.103Z,22.76
2023-08-29T23:21:10.346Z,22.73
2023-08-29T23:23:01.828Z,22.67
2023-08-29T23:24:54.079Z,22.64
2023-08-29T23:26:45.373Z,22.67
2023-08-29T23:28:36.802Z,22.63
2023-08-29T23:30:29.111Z,22.60
2023-08-29T23:32:20.484Z,22.56
2023-08-29T23:34:12.086Z,22.54
2023-08-29T23:36:03.815Z,22.55
2023-08-29T23:37:55.258Z,22.61
2023-08-29T23:39:47.110Z,22.49
2023-08-29T23:41:38.791Z,22.31
2023-08-29T23:43:30.400Z,22.36
2023-08-29T23:45:21.583Z,22.30
2023-08-29T23:47:13.098Z,22.28
2023-08-29T23:49:04.557Z,22.18
2023-08-29T23:50:56.278Z,22.20
2023-08-29T23:52:47.399Z,22.22
2023-08-29T23:54:39.110Z,22.37
2023-08-29T23:56:30.400Z,22.31
2023-08-29T23:58:22.103Z,22.37
